Time;durP1;ratioP1;P1;durP2;ratioP2;P2;SDS_P1;SDS_P2;PMS_P1;PMS_P2;Temp;Humidity;BMP_temperature;BMP_pressure;BME280_temperature;BME280_humidity;BME280_pressure;Samples;Min_cycle;Max_cycle;Signal;HPM_P1;HPM_P2
2022/02/11 00:08:54;;;;;;;9.70;9.20;;;7.90;50.60;;;;;;5108764;28;20914;-83
2022/02/11 00:11:29;;;;;;;8.27;7.87;;;7.90;50.20;;;;;;5090722;28;20415;-84
2022/02/11 00:13:55;;;;;;;8.33;7.80;;;7.90;49.50;;;;;;5090344;28;20173;-83
2022/02/11 00:16:21;;;;;;;8.65;8.05;;;7.90;49.10;;;;;;5089526;28;20431;-84
2022/02/11 00:18:47;;;;;;;9.17;8.57;;;7.90;50.60;;;;;;5090910;28;20174;-84
2022/02/11 00:21:12;;;;;;;8.83;8.20;;;7.90;50.20;;;;;;5091204;28;20223;-83
2022/02/11 00:23:39;;;;;;;9.60;9.00;;;7.80;50.20;;;;;;5090011;28;20226;-84
2022/02/11 00:26:06;;;;;;;9.63;9.03;;;7.80;50.00;;;;;;5090388;28;20188;-83
2022/02/11 00:33:45;;;;;;;10.20;9.30;;;7.80;50.40;;;;;;5108264;28;20459;-84
2022/02/11 00:36:13;;;;;;;9.67;9.17;;;7.90;50.70;;;;;;5089719;28;20461;-84
2022/02/11 00:39:11;;;;;;;10.83;10.13;;;7.90;50.30;;;;;;5094462;28;20878;-84
2022/02/11 01:06:08;;;;;;;10.80;9.90;;;7.80;50.00;;;;;;5113793;28;20407;-84
2022/02/11 01:08:34;;;;;;;11.63;10.83;;;7.80;49.90;;;;;;5094303;28;21176;-84
2022/02/11 01:11:00;;;;;;;12.57;11.57;;;7.80;49.60;;;;;;5093573;28;20502;-84
2022/02/11 01:13:26;;;;;;;12.70;11.50;;;7.70;50.10;;;;;;5093634;28;20419;-83
2022/02/11 01:15:59;;;;;;;12.00;11.00;;;7.70;50.50;;;;;;5092993;28;20956;-84
2022/02/11 01:18:25;;;;;;;11.60;10.77;;;7.60;50.40;;;;;;5094964;28;20209;-84
2022/02/11 01:20:58;;;;;;;10.37;9.67;;;7.60;50.10;;;;;;5093506;28;20464;-83
2022/02/11 01:23:53;;;;;;;11.47;10.70;;;7.60;50.30;;;;;;5094814;28;20415;-84
2022/02/11 01:30:18;;;;;;;10.93;10.23;;;7.60;49.60;;;;;;5049636;28;20880;-84
2022/02/11 01:37:35;;;;;;;9.73;9.03;;;7.60;49.50;;;;;;5112036;28;20406;-83
2022/02/11 01:48:01;;;;;;;10.20;9.50;;;7.60;49.40;;;;;;5110785;28;20807;-84
2022/02/11 01:53:20;;;;;;;10.17;9.40;;;7.60;49.20;;;;;;5111822;28;20411;-83
2022/02/11 03:34:56;;;;;;;9.43;8.93;;;6.70;64.30;;;;;;5110675;28;20414;-79
2022/02/11 04:55:44;;;;;;;10.03;9.63;;;3.70;87.30;;;;;;5110800;28;20533;-79
2022/02/11 05:00:54;;;;;;;11.47;10.97;;;3.70;91.00;;;;;;5111014;28;20391;-80
2022/02/11 05:03:20;;;;;;;10.80;10.33;;;3.60;91.50;;;;;;5092384;28;20415;-80
2022/02/11 05:05:52;;;;;;;11.70;11.20;;;3.70;91.90;;;;;;5092458;28;20181;-79
2022/02/11 05:08:35;;;;;;;10.83;10.43;;;3.70;92.30;;;;;;5092245;28;20234;-80
2022/02/11 05:11:03;;;;;;;12.20;11.70;;;3.60;91.20;;;;;;5109988;28;20411;-80
2022/02/11 05:13:28;;;;;;;12.50;12.00;;;3.60;92.30;;;;;;5092053;28;20782;-80
2022/02/11 05:15:55;;;;;;;11.50;11.10;;;3.60;91.70;;;;;;5091466;28;20463;-79
2022/02/11 05:18:20;;;;;;;11.63;11.23;;;3.70;91.70;;;;;;5092265;28;20173;-79
2022/02/11 05:20:46;;;;;;;11.77;11.27;;;3.60;91.70;;;;;;5092473;28;20404;-79
2022/02/11 05:23:13;;;;;;;11.07;10.67;;;3.60;92.30;;;;;;5094309;28;20165;-79
2022/02/11 05:25:41;;;;;;;11.80;11.30;;;3.60;91.70;;;;;;5096526;28;20411;-78
2022/02/11 05:28:08;;;;;;;11.70;11.20;;;3.60;91.70;;;;;;5095847;28;20895;-79
2022/02/11 05:30:36;;;;;;;11.40;10.90;;;3.70;91.70;;;;;;5096014;28;20430;-79
2022/02/11 05:33:02;;;;;;;11.83;11.33;;;3.60;91.30;;;;;;5095682;28;20419;-80
2022/02/11 05:35:28;;;;;;;11.07;10.57;;;3.60;91.40;;;;;;5096366;28;20493;-79
2022/02/11 05:37:54;;;;;;;10.90;10.50;;;3.70;91.80;;;;;;5095455;28;20426;-79
2022/02/11 05:40:20;;;;;;;10.73;10.33;;;3.70;91.60;;;;;;5095939;28;20411;-79
2022/02/11 05:42:45;;;;;;;10.60;10.10;;;3.70;91.20;;;;;;5095931;28;20174;-79
2022/02/11 05:45:11;;;;;;;10.63;10.23;;;3.70;92.30;;;;;;5096106;28;20280;-79
2022/02/11 05:47:37;;;;;;;11.90;11.10;;;3.80;92.00;;;;;;5096071;28;20181;-79
2022/02/11 05:50:04;;;;;;;11.40;10.90;;;3.80;91.70;;;;;;5096119;28;20768;-79
2022/02/11 05:52:31;;;;;;;10.90;10.50;;;3.80;90.90;;;;;;5096161;28;20170;-80
2022/02/11 05:54:58;;;;;;;10.73;10.33;;;3.70;90.30;;;;;;5096387;28;20418;-89
2022/02/11 05:57:24;;;;;;;11.47;10.97;;;3.70;92.10;;;;;;5096890;28;20831;-89
2022/02/11 05:59:56;;;;;;;11.73;11.23;;;3.70;91.70;;;;;;5096251;28;20446;-83
2022/02/11 06:02:22;;;;;;;11.10;10.70;;;3.70;91.20;;;;;;5095348;28;20170;-85
2022/02/11 06:04:48;;;;;;;12.17;11.57;;;3.70;92.10;;;;;;5096170;28;20415;-86
2022/02/11 06:07:14;;;;;;;12.53;11.93;;;3.80;92.40;;;;;;5095569;28;20441;-80
2022/02/11 06:09:40;;;;;;;12.33;11.83;;;3.80;92.00;;;;;;5095223;28;20174;-80
2022/02/11 06:12:07;;;;;;;12.47;11.93;;;3.80;92.00;;;;;;5095209;28;20443;-80
2022/02/11 06:14:35;;;;;;;12.63;12.03;;;3.80;91.30;;;;;;5095160;28;20416;-81
2022/02/11 06:17:00;;;;;;;13.40;12.77;;;3.80;90.90;;;;;;5095046;28;20508;-80
2022/02/11 06:19:26;;;;;;;11.90;11.30;;;3.80;91.60;;;;;;5094743;28;20810;-80
2022/02/11 06:21:52;;;;;;;12.97;12.37;;;3.90;92.30;;;;;;5094639;28;20174;-79
2022/02/11 06:24:17;;;;;;;13.70;12.80;;;3.90;92.60;;;;;;5094776;28;20193;-80
2022/02/11 06:26:43;;;;;;;13.33;12.63;;;3.90;92.80;;;;;;5095489;28;20178;-82
2022/02/11 06:29:08;;;;;;;14.27;13.50;;;3.90;92.40;;;;;;5095886;28;20178;-82
2022/02/11 06:31:34;;;;;;;12.70;12.10;;;3.90;92.30;;;;;;5095289;28;20200;-82
2022/02/11 06:34:00;;;;;;;12.37;11.77;;;3.90;91.30;;;;;;5095138;28;20231;-82
2022/02/11 06:36:26;;;;;;;13.30;12.60;;;4.00;92.70;;;;;;5113163;28;20284;-82
2022/02/11 06:38:51;;;;;;;13.77;13.07;;;4.00;92.50;;;;;;5094866;28;20174;-82
2022/02/11 06:41:17;;;;;;;13.87;13.17;;;4.10;92.20;;;;;;5094933;28;20174;-82
2022/02/11 06:43:43;;;;;;;13.50;12.80;;;4.10;91.50;;;;;;5094366;28;20570;-82
2022/02/11 06:46:08;;;;;;;13.40;12.70;;;4.10;91.40;;;;;;5095288;28;20203;-82
2022/02/11 06:48:34;;;;;;;12.40;11.73;;;4.10;90.50;;;;;;5095021;28;20424;-89
2022/02/11 06:51:00;;;;;;;14.23;12.80;;;4.10;89.60;;;;;;5094394;28;20185;-88
2022/02/11 06:53:26;;;;;;;12.00;11.50;;;4.10;89.20;;;;;;5094418;28;20174;-89
2022/02/11 06:55:52;;;;;;;13.33;12.73;;;4.10;89.40;;;;;;5094226;28;20297;-89
2022/02/11 06:58:20;;;;;;;13.40;12.70;;;4.10;88.30;;;;;;5093800;28;20411;-89
2022/02/11 07:00:48;;;;;;;13.07;12.40;;;4.10;87.40;;;;;;5094308;28;20775;-90
2022/02/11 07:03:14;;;;;;;12.73;12.03;;;4.00;86.20;;;;;;5095576;28;20422;-90
2022/02/11 07:05:41;;;;;;;12.13;11.53;;;4.10;86.30;;;;;;5094000;28;20473;-89
2022/02/11 07:08:07;;;;;;;13.20;12.50;;;4.00;84.80;;;;;;5094680;28;20450;-89
2022/02/11 07:10:33;;;;;;;12.60;12.00;;;4.00;86.10;;;;;;5094478;28;20427;-89
2022/02/11 07:12:59;;;;;;;11.93;11.43;;;4.10;85.90;;;;;;5094016;28;20412;-90
2022/02/11 07:15:25;;;;;;;12.93;12.33;;;4.10;84.10;;;;;;5094208;28;20463;-89
2022/02/11 07:17:51;;;;;;;11.93;11.33;;;4.10;84.70;;;;;;5093629;28;20437;-89
2022/02/11 07:20:17;;;;;;;12.73;12.13;;;4.00;84.60;;;;;;5092747;28;20412;-89
2022/02/11 07:22:43;;;;;;;12.67;12.17;;;4.10;84.90;;;;;;5093314;28;20189;-85
2022/02/11 07:25:10;;;;;;;11.80;11.17;;;4.10;84.30;;;;;;5094988;28;20416;-88
2022/02/11 07:27:37;;;;;;;12.17;11.67;;;4.20;85.90;;;;;;5096182;28;20170;-89
2022/02/11 07:30:04;;;;;;;12.83;12.13;;;4.20;85.20;;;;;;5095351;28;20416;-89
2022/02/11 07:32:30;;;;;;;12.30;11.70;;;4.20;84.00;;;;;;5094848;28;20419;-89
2022/02/11 07:35:00;;;;;;;12.80;12.20;;;4.20;85.00;;;;;;5095106;28;20908;-89
2022/02/11 07:37:26;;;;;;;12.20;11.47;;;4.20;82.00;;;;;;5094136;28;20252;-88
2022/02/11 07:39:57;;;;;;;12.40;11.80;;;4.20;82.90;;;;;;5095358;28;20412;-89
2022/02/11 07:42:23;;;;;;;14.27;13.20;;;4.10;80.80;;;;;;5095166;28;20476;-87
2022/02/11 07:44:48;;;;;;;13.23;12.27;;;4.10;83.80;;;;;;5094594;28;20891;-87
2022/02/11 07:47:15;;;;;;;12.63;11.80;;;4.10;83.40;;;;;;5095304;28;20430;-89
2022/02/11 07:49:44;;;;;;;11.37;10.77;;;4.20;81.60;;;;;;5094386;28;20655;-89
2022/02/11 07:52:11;;;;;;;11.87;11.27;;;4.20;81.60;;;;;;5093731;28;20472;-89
2022/02/11 07:54:37;;;;;;;12.33;11.63;;;4.20;80.60;;;;;;5093662;28;20451;-90
2022/02/11 07:57:03;;;;;;;11.43;10.90;;;4.20;80.50;;;;;;5093914;28;20825;-90
2022/02/11 07:59:29;;;;;;;12.50;11.90;;;4.20;79.10;;;;;;5093871;28;20800;-91
2022/02/11 08:01:55;;;;;;;12.80;12.10;;;4.20;79.40;;;;;;5093425;28;20474;-90
2022/02/11 08:04:21;;;;;;;12.90;12.30;;;4.20;77.20;;;;;;5094750;28;20162;-91
2022/02/11 08:06:47;;;;;;;13.00;12.20;;;4.20;79.20;;;;;;5093766;28;20556;-90
2022/02/11 08:09:13;;;;;;;12.20;11.50;;;4.20;79.20;;;;;;5093830;28;20415;-89
2022/02/11 08:11:39;;;;;;;12.73;12.13;;;4.20;79.20;;;;;;5093863;28;20498;-90
2022/02/11 08:14:06;;;;;;;11.80;11.20;;;4.30;79.60;;;;;;5094056;28;20315;-92
2022/02/11 08:16:31;;;;;;;12.27;11.70;;;4.30;77.80;;;;;;5093599;28;20217;-91
2022/02/11 08:18:58;;;;;;;12.33;11.73;;;4.30;77.70;;;;;;5094386;28;21041;-90
2022/02/11 08:21:24;;;;;;;12.57;11.67;;;4.30;77.60;;;;;;5094609;28;20170;-90
2022/02/11 08:23:50;;;;;;;13.43;12.67;;;4.40;76.60;;;;;;5093541;28;20418;-90
2022/02/11 08:26:16;;;;;;;12.10;11.30;;;4.30;75.00;;;;;;5094219;28;20498;-90
2022/02/11 08:28:42;;;;;;;11.57;10.97;;;4.30;75.10;;;;;;5094283;28;20565;-91
2022/02/11 08:31:08;;;;;;;13.03;12.13;;;4.30;75.30;;;;;;5093762;28;20182;-90
2022/02/11 08:33:33;;;;;;;12.60;11.70;;;4.30;72.80;;;;;;5093699;28;20172;-91
2022/02/11 08:35:59;;;;;;;13.27;12.43;;;4.40;74.90;;;;;;5093661;28;20538;-90
2022/02/11 08:38:26;;;;;;;11.73;11.23;;;4.40;75.20;;;;;;5093878;28;20193;-87
2022/02/11 08:40:53;;;;;;;11.77;11.10;;;4.40;73.90;;;;;;5093405;28;20174;-87
2022/02/11 08:43:19;;;;;;;11.90;11.10;;;4.40;73.00;;;;;;5093191;28;20441;-85
2022/02/11 08:45:45;;;;;;;11.77;11.03;;;4.40;71.60;;;;;;5108264;28;20423;-87
2022/02/11 08:48:14;;;;;;;11.10;10.47;;;4.30;70.90;;;;;;5110348;28;20927;-86
2022/02/11 08:50:41;;;;;;;12.07;11.40;;;4.20;71.90;;;;;;5109973;28;20420;-86
2022/02/11 08:53:09;;;;;;;11.37;10.50;;;4.30;72.00;;;;;;5100073;28;20435;-88
2022/02/11 08:55:36;;;;;;;11.70;10.80;;;4.30;72.90;;;;;;5072956;28;20501;-87
2022/02/11 08:58:04;;;;;;;11.27;10.57;;;4.30;72.00;;;;;;5096885;28;20431;-90
2022/02/11 09:00:31;;;;;;;10.90;10.30;;;4.40;70.60;;;;;;5113906;28;20481;-88
2022/02/11 09:02:58;;;;;;;10.07;9.67;;;4.40;69.40;;;;;;5113793;28;20422;-88
2022/02/11 09:05:25;;;;;;;11.50;10.70;;;4.40;71.40;;;;;;5114210;28;20467;-87
2022/02/11 09:07:59;;;;;;;10.67;10.13;;;4.40;71.00;;;;;;5113998;28;20413;-88
2022/02/11 09:10:27;;;;;;;12.57;11.60;;;4.50;68.50;;;;;;5114107;28;20805;-89
2022/02/11 09:12:54;;;;;;;11.20;10.60;;;4.50;68.80;;;;;;5113570;28;20419;-89
2022/02/11 09:15:21;;;;;;;12.07;11.27;;;4.50;70.50;;;;;;5113855;28;20540;-89
2022/02/11 09:17:48;;;;;;;11.63;11.00;;;4.50;68.30;;;;;;5113995;28;20415;-89
2022/02/11 09:20:14;;;;;;;11.00;10.47;;;4.50;68.90;;;;;;5110894;28;20422;-89
2022/02/11 09:22:39;;;;;;;12.17;11.17;;;4.50;67.20;;;;;;5087287;28;20413;-88
2022/02/11 09:25:05;;;;;;;10.97;9.97;;;4.60;67.30;;;;;;5081512;28;20915;-85
2022/02/11 09:27:31;;;;;;;11.40;10.70;;;4.60;68.00;;;;;;5097472;28;20566;-87
2022/02/11 09:29:57;;;;;;;10.33;9.83;;;4.70;68.30;;;;;;5096702;28;20419;-86
2022/02/11 09:32:23;;;;;;;10.70;10.10;;;4.60;66.00;;;;;;5096841;28;20174;-87
2022/02/11 09:34:49;;;;;;;11.83;10.93;;;4.70;66.20;;;;;;5096440;28;20593;-87
2022/02/11 09:37:15;;;;;;;10.43;9.80;;;4.80;67.50;;;;;;5096350;28;20458;-86
2022/02/11 09:39:41;;;;;;;11.37;10.57;;;4.90;67.00;;;;;;5113687;28;20412;-86
2022/02/11 09:42:08;;;;;;;10.00;9.40;;;4.80;64.50;;;;;;5113251;28;20755;-86
2022/02/11 09:44:34;;;;;;;10.57;9.97;;;5.00;65.20;;;;;;5113229;28;20177;-86
2022/02/11 09:47:00;;;;;;;10.27;9.70;;;5.00;63.00;;;;;;5113503;28;20412;-87
2022/02/11 09:49:26;;;;;;;10.80;10.30;;;5.00;65.10;;;;;;5113260;28;20788;-88
2022/02/11 09:51:57;;;;;;;10.77;10.17;;;5.10;64.00;;;;;;5113163;28;20642;-89
2022/02/11 09:54:23;;;;;;;10.00;9.50;;;5.10;63.20;;;;;;5113311;28;20178;-86
2022/02/11 09:56:50;;;;;;;10.10;9.60;;;5.10;63.30;;;;;;5112848;28;20470;-88
2022/02/11 09:59:16;;;;;;;10.40;9.80;;;5.10;62.30;;;;;;5113152;28;20400;-90
2022/02/11 10:01:43;;;;;;;9.57;9.17;;;5.10;61.00;;;;;;5113348;28;20412;-87
2022/02/11 10:04:13;;;;;;;9.50;9.03;;;5.10;60.30;;;;;;5113862;28;20411;-92
2022/02/11 10:06:39;;;;;;;11.57;10.67;;;5.20;61.50;;;;;;5117515;28;20419;-92
2022/02/11 10:09:05;;;;;;;9.87;9.37;;;5.20;58.70;;;;;;5112927;28;20972;-92
2022/02/11 10:11:32;;;;;;;10.13;9.73;;;5.30;60.10;;;;;;5113587;28;20403;-92
2022/02/11 10:14:21;;;;;;;9.50;8.90;;;5.30;59.00;;;;;;5113327;28;20884;-93
2022/02/11 10:17:08;;;;;;;10.40;9.87;;;5.40;57.40;;;;;;5113652;28;20487;-91
2022/02/11 10:19:44;;;;;;;10.77;9.73;;;5.50;57.50;;;;;;5113823;28;20423;-92
2022/02/11 10:22:17;;;;;;;10.40;9.53;;;5.60;59.30;;;;;;5114006;28;20407;-92
2022/02/11 10:24:43;;;;;;;10.10;9.27;;;5.60;57.40;;;;;;5113711;28;20817;-91
2022/02/11 10:27:21;;;;;;;9.90;9.23;;;5.60;55.00;;;;;;5113623;28;20412;-93
2022/02/11 10:29:49;;;;;;;9.60;8.90;;;5.70;57.10;;;;;;5113626;28;20419;-91
2022/02/11 10:32:15;;;;;;;9.80;9.40;;;5.70;55.40;;;;;;5113553;28;20404;-93
2022/02/11 10:34:49;;;;;;;9.90;9.30;;;5.90;55.60;;;;;;5113369;28;20419;-92
2022/02/11 10:37:14;;;;;;;9.77;9.10;;;6.10;54.90;;;;;;5114339;28;20201;-92
2022/02/11 10:39:40;;;;;;;9.83;9.33;;;6.20;55.50;;;;;;5113888;28;20502;-92
2022/02/11 10:42:09;;;;;;;9.60;9.00;;;6.20;55.30;;;;;;5113679;28;20173;-91
2022/02/11 10:44:37;;;;;;;9.30;8.90;;;6.20;54.00;;;;;;5113576;28;20580;-93
2022/02/11 10:47:08;;;;;;;9.67;9.07;;;6.00;53.50;;;;;;5113985;28;20420;-92
2022/02/11 10:49:35;;;;;;;10.20;9.50;;;5.90;52.30;;;;;;5113755;28;20451;-91
2022/02/11 10:52:15;;;;;;;10.10;9.07;;;5.90;53.30;;;;;;5113876;28;20507;-92
2022/02/11 10:54:43;;;;;;;9.48;8.85;;;5.90;51.90;;;;;;5113561;28;20940;-91
2022/02/11 10:57:13;;;;;;;8.43;7.90;;;5.90;53.30;;;;;;5113786;28;20458;-92
2022/02/11 10:59:44;;;;;;;9.30;8.50;;;5.80;56.10;;;;;;5113680;28;20410;-92
2022/02/11 11:02:30;;;;;;;8.13;7.70;;;5.90;56.40;;;;;;5108546;28;20412;-93
2022/02/11 11:04:56;;;;;;;8.07;7.60;;;6.00;53.80;;;;;;5100821;28;20447;-93
2022/02/11 11:07:27;;;;;;;9.50;8.80;;;6.00;49.10;;;;;;5081769;28;20421;-93
2022/02/11 11:09:53;;;;;;;9.53;8.90;;;6.00;51.30;;;;;;5076883;28;20186;-92
2022/02/11 11:12:23;;;;;;;9.50;8.80;;;6.00;51.70;;;;;;5096516;28;20416;-93
2022/02/11 11:14:50;;;;;;;9.10;8.50;;;6.00;52.80;;;;;;5095846;28;20426;-92
2022/02/11 11:17:19;;;;;;;8.17;7.77;;;6.00;52.80;;;;;;5096344;28;20819;-91
2022/02/11 11:19:46;;;;;;;7.53;7.23;;;6.00;50.00;;;;;;5095888;28;20419;-92
2022/02/11 11:22:13;;;;;;;9.23;8.67;;;6.00;51.10;;;;;;5095197;28;20778;-91
2022/02/11 11:24:49;;;;;;;8.47;7.93;;;6.10;51.40;;;;;;5112640;28;20408;-91
2022/02/11 11:27:41;;;;;;;8.67;8.20;;;6.20;53.00;;;;;;5082160;28;20423;-91
2022/02/11 11:30:27;;;;;;;8.80;8.30;;;6.30;49.40;;;;;;5096477;28;20416;-92
2022/02/11 11:33:05;;;;;;;9.00;8.40;;;6.20;49.70;;;;;;5096197;28;20768;-91
2022/02/11 11:35:35;;;;;;;8.40;7.97;;;6.30;48.60;;;;;;5094959;28;20461;-91
2022/02/11 11:38:13;;;;;;;8.80;8.30;;;6.30;49.30;;;;;;5096556;28;20443;-91
2022/02/11 11:40:40;;;;;;;8.37;7.77;;;6.30;49.30;;;;;;5094244;28;20784;-87
2022/02/11 11:43:16;;;;;;;9.07;8.40;;;6.40;48.70;;;;;;5095829;28;20899;-89
2022/02/11 11:45:43;;;;;;;7.90;7.20;;;6.30;48.00;;;;;;5095291;28;20426;-89
2022/02/11 11:48:13;;;;;;;7.70;7.40;;;6.40;48.30;;;;;;5095590;28;20430;-86
2022/02/11 11:50:41;;;;;;;8.40;8.00;;;6.40;48.80;;;;;;5093884;28;20438;-89
2022/02/11 11:53:26;;;;;;;8.17;7.77;;;6.40;48.80;;;;;;5093705;28;20577;-84
2022/02/11 11:55:52;;;;;;;8.07;7.40;;;6.30;44.50;;;;;;5093699;28;20459;-88
2022/02/11 11:58:43;;;;;;;8.57;7.90;;;6.10;45.70;;;;;;5094097;28;20415;-82
2022/02/11 12:01:17;;;;;;;6.87;6.57;;;6.10;47.00;;;;;;5094048;28;20809;-85
2022/02/11 12:04:28;;;;;;;7.90;7.30;;;6.20;45.50;;;;;;5093084;28;20410;-84
2022/02/11 12:07:06;;;;;;;7.53;6.97;;;6.20;44.50;;;;;;5089000;28;20934;-83
2022/02/11 12:09:33;;;;;;;7.57;7.13;;;6.30;46.00;;;;;;5093770;28;20787;-84
2022/02/11 12:12:05;;;;;;;8.30;7.80;;;6.30;44.30;;;;;;5092992;28;20443;-85
2022/02/11 12:14:33;;;;;;;8.47;7.73;;;6.30;43.40;;;;;;5093244;28;20415;-84
2022/02/11 12:17:01;;;;;;;7.90;7.50;;;6.30;43.80;;;;;;5093550;28;20508;-87
2022/02/11 12:19:27;;;;;;;8.00;7.50;;;6.40;43.20;;;;;;5093336;28;20400;-84
2022/02/11 12:21:54;;;;;;;7.80;7.40;;;6.40;42.20;;;;;;5093457;28;20403;-87
2022/02/11 12:27:21;;;;;;;7.43;7.03;;;6.60;42.50;;;;;;5112402;28;20816;-86
2022/02/11 12:29:51;;;;;;;7.32;6.88;;;6.60;42.50;;;;;;5092153;28;20415;-83
2022/02/11 12:32:19;;;;;;;6.90;6.50;;;6.70;41.70;;;;;;5095327;28;20205;-85
2022/02/11 12:34:49;;;;;;;6.83;6.43;;;6.70;39.90;;;;;;5097393;28;20414;-85
2022/02/11 12:37:15;;;;;;;7.07;6.77;;;6.60;40.10;;;;;;5097699;28;20454;-82
2022/02/11 12:39:41;;;;;;;7.40;6.77;;;6.60;40.70;;;;;;5097398;28;20463;-84
2022/02/11 12:42:06;;;;;;;6.93;6.53;;;6.70;41.50;;;;;;5097350;28;20184;-83
2022/02/11 12:44:33;;;;;;;6.93;6.63;;;6.70;38.50;;;;;;5097511;28;20226;-83
2022/02/11 12:47:01;;;;;;;6.60;6.30;;;6.70;39.90;;;;;;5097891;28;20184;-83
2022/02/11 12:49:33;;;;;;;7.03;6.73;;;6.60;41.70;;;;;;5097227;28;20450;-83
2022/02/11 12:51:59;;;;;;;7.50;6.93;;;6.70;41.40;;;;;;5097354;28;20450;-80
2022/02/11 12:54:25;;;;;;;8.37;7.77;;;6.60;40.80;;;;;;5097220;28;20520;-83
2022/02/11 12:57:04;;;;;;;7.00;6.60;;;6.70;39.90;;;;;;5096911;28;20467;-83
2022/02/11 12:59:30;;;;;;;7.30;6.80;;;6.70;42.50;;;;;;5093220;28;20187;-81
2022/02/11 13:01:56;;;;;;;8.13;7.53;;;6.70;41.10;;;;;;5076200;28;20778;-81
2022/02/11 13:04:22;;;;;;;7.63;7.17;;;6.70;42.80;;;;;;5076939;28;20420;-80
2022/02/11 13:06:48;;;;;;;7.53;7.13;;;6.70;41.90;;;;;;5077561;28;20417;-81
2022/02/11 13:09:21;;;;;;;8.37;7.97;;;6.80;42.00;;;;;;5077490;28;20209;-82
2022/02/11 13:11:52;;;;;;;8.23;7.57;;;6.80;41.80;;;;;;5077954;28;20424;-84
2022/02/11 13:14:19;;;;;;;8.20;7.70;;;6.80;42.30;;;;;;5077715;28;20413;-82
2022/02/11 13:16:45;;;;;;;7.50;7.10;;;6.70;42.60;;;;;;5077375;28;20464;-82
2022/02/11 13:19:12;;;;;;;7.40;6.80;;;6.70;41.90;;;;;;5077548;28;20856;-83
2022/02/11 13:21:39;;;;;;;7.57;7.17;;;6.70;43.60;;;;;;5095682;27;20487;-80
2022/02/11 13:24:06;;;;;;;7.87;7.43;;;6.70;44.10;;;;;;5116252;27;20425;-83
2022/02/11 13:26:32;;;;;;;7.37;6.87;;;6.70;42.50;;;;;;5117212;27;20423;-82
2022/02/11 13:28:58;;;;;;;7.13;6.83;;;6.60;43.50;;;;;;5116908;27;20422;-82
2022/02/11 13:31:24;;;;;;;8.73;8.20;;;6.60;42.60;;;;;;5116963;27;20477;-82
2022/02/11 13:34:03;;;;;;;8.77;8.10;;;6.60;43.90;;;;;;5117572;27;20442;-88
2022/02/11 13:36:29;;;;;;;7.60;7.03;;;6.70;43.40;;;;;;5117415;27;20204;-85
2022/02/11 13:38:57;;;;;;;7.53;7.03;;;6.70;43.10;;;;;;5117393;27;21010;-81
2022/02/11 13:41:40;;;;;;;8.00;7.47;;;6.80;42.60;;;;;;5117512;27;20997;-80
2022/02/11 13:44:12;;;;;;;6.97;6.60;;;6.70;41.80;;;;;;5116548;27;20399;-83
2022/02/11 13:46:40;;;;;;;7.27;6.97;;;6.70;42.60;;;;;;5117408;27;20513;-81
2022/02/11 13:49:08;;;;;;;7.53;7.03;;;6.80;42.90;;;;;;5117969;27;20414;-82
2022/02/11 13:51:35;;;;;;;8.15;7.75;;;6.80;41.80;;;;;;5115741;27;20778;-82
2022/02/11 13:54:17;;;;;;;7.70;7.30;;;6.90;42.70;;;;;;5115954;27;20173;-82
2022/02/11 13:56:49;;;;;;;7.03;6.53;;;7.00;40.90;;;;;;5116147;27;20457;-84
2022/02/11 13:59:35;;;;;;;7.10;6.80;;;7.00;41.20;;;;;;5134715;27;20491;-84
2022/02/11 14:02:07;;;;;;;7.17;6.77;;;7.10;41.20;;;;;;5115605;27;20412;-83
2022/02/11 14:04:33;;;;;;;7.93;7.17;;;7.00;41.10;;;;;;5116123;27;20423;-83
2022/02/11 14:07:00;;;;;;;7.23;6.80;;;7.00;41.20;;;;;;5115949;27;20423;-81
2022/02/11 14:09:36;;;;;;;7.37;6.97;;;7.00;40.00;;;;;;5116403;27;20410;-84
2022/02/11 14:12:14;;;;;;;6.67;6.27;;;6.90;38.90;;;;;;5134719;27;20497;-81
2022/02/11 14:14:56;;;;;;;6.33;6.03;;;6.90;39.60;;;;;;5116064;27;20781;-77
2022/02/11 14:17:22;;;;;;;7.10;6.70;;;6.90;40.00;;;;;;5116156;27;20461;-82
2022/02/11 14:19:47;;;;;;;7.20;6.67;;;6.80;39.30;;;;;;5116105;27;20859;-81
2022/02/11 14:22:13;;;;;;;7.03;6.63;;;6.70;39.80;;;;;;5116376;27;20501;-84
2022/02/11 14:24:39;;;;;;;7.67;6.77;;;6.70;40.50;;;;;;5116090;27;20172;-81
2022/02/11 14:27:06;;;;;;;6.50;6.20;;;6.70;40.70;;;;;;5116246;27;20418;-83
2022/02/11 14:29:32;;;;;;;7.87;7.43;;;6.70;40.20;;;;;;5115768;27;20502;-84
2022/02/11 14:32:16;;;;;;;6.47;6.17;;;6.70;40.20;;;;;;5134641;27;20426;-86
2022/02/11 14:34:44;;;;;;;6.27;6.07;;;6.70;39.40;;;;;;5092328;28;20419;-87
2022/02/11 14:37:10;;;;;;;7.40;6.90;;;6.60;39.50;;;;;;5095483;28;20463;-82
2022/02/11 14:39:37;;;;;;;6.17;5.87;;;6.60;39.00;;;;;;5113045;28;20267;-80
2022/02/11 14:42:04;;;;;;;6.17;5.90;;;6.70;37.90;;;;;;5094657;28;20465;-80
2022/02/11 14:44:36;;;;;;;7.40;6.90;;;6.60;37.60;;;;;;5094722;28;20422;-80
2022/02/11 14:47:04;;;;;;;7.90;7.40;;;6.50;37.70;;;;;;5095243;28;20422;-81
2022/02/11 14:49:30;;;;;;;7.20;6.80;;;6.60;38.80;;;;;;5094709;28;20458;-81
2022/02/11 14:52:00;;;;;;;6.20;5.80;;;6.60;37.80;;;;;;5094511;28;20495;-81
2022/02/11 14:54:26;;;;;;;6.40;5.90;;;6.70;37.10;;;;;;5094270;28;20511;-80
2022/02/11 14:56:55;;;;;;;6.50;6.20;;;6.60;38.50;;;;;;5093803;28;20823;-80
2022/02/11 14:59:22;;;;;;;6.90;6.37;;;6.70;37.30;;;;;;5094898;28;20439;-81
2022/02/11 15:01:48;;;;;;;7.73;7.23;;;6.70;39.60;;;;;;5094302;28;20446;-82
2022/02/11 15:04:15;;;;;;;7.33;6.97;;;6.60;39.80;;;;;;5095394;28;20495;-83
2022/02/11 15:06:41;;;;;;;6.80;6.40;;;6.70;39.90;;;;;;5095532;28;20461;-87
2022/02/11 15:09:08;;;;;;;7.07;6.37;;;6.80;39.00;;;;;;5095713;28;20411;-85
2022/02/11 15:11:34;;;;;;;6.87;6.47;;;6.80;39.90;;;;;;5095678;28;20915;-84
2022/02/11 15:14:01;;;;;;;7.20;6.80;;;6.90;39.10;;;;;;5095474;28;20440;-87
2022/02/11 15:16:27;;;;;;;7.87;7.27;;;6.90;38.60;;;;;;5114183;28;20466;-86
2022/02/11 15:18:53;;;;;;;6.77;6.30;;;6.90;39.60;;;;;;5095515;28;20415;-87
2022/02/11 15:21:20;;;;;;;6.40;6.07;;;6.90;38.60;;;;;;5093662;28;20256;-87
2022/02/11 15:23:46;;;;;;;8.07;7.57;;;6.90;38.20;;;;;;5074982;28;20170;-88
2022/02/11 15:26:14;;;;;;;7.40;7.00;;;6.90;38.90;;;;;;5075080;28;20425;-88
2022/02/11 15:28:40;;;;;;;7.37;7.00;;;6.90;37.80;;;;;;5074764;28;20454;-88
2022/02/11 15:31:13;;;;;;;6.43;6.03;;;6.90;35.20;;;;;;5074921;28;20455;-88
2022/02/11 15:33:41;;;;;;;6.67;6.37;;;6.80;36.80;;;;;;5074994;28;20419;-88
2022/02/11 15:36:08;;;;;;;6.67;6.27;;;6.80;37.70;;;;;;5074961;28;20495;-88
2022/02/11 15:38:34;;;;;;;7.57;6.77;;;6.80;38.30;;;;;;5075102;28;20408;-88
2022/02/11 15:41:00;;;;;;;7.50;6.90;;;6.80;38.60;;;;;;5074651;28;20408;-88
2022/02/11 15:43:26;;;;;;;8.00;7.30;;;6.80;39.20;;;;;;5074665;28;20447;-88
2022/02/11 15:45:55;;;;;;;6.20;5.80;;;6.80;39.10;;;;;;5074401;28;20177;-89
2022/02/11 15:48:21;;;;;;;6.47;6.07;;;6.90;38.90;;;;;;5075108;28;20235;-86
2022/02/11 15:50:47;;;;;;;6.40;6.00;;;6.90;38.00;;;;;;5074479;28;20416;-87
2022/02/11 15:53:15;;;;;;;7.23;6.70;;;7.00;38.70;;;;;;5075523;28;20470;-90
2022/02/11 15:55:41;;;;;;;6.72;6.20;;;6.80;38.50;;;;;;5074150;28;20424;-86
2022/02/11 15:58:09;;;;;;;6.73;6.20;;;6.80;39.10;;;;;;5090212;28;20230;-87
2022/02/11 16:00:38;;;;;;;6.87;6.23;;;6.90;39.10;;;;;;5099651;28;20408;-84
2022/02/11 16:03:05;;;;;;;12.23;6.70;;;6.90;38.90;;;;;;5094720;28;20414;-84
2022/02/11 16:05:30;;;;;;;7.50;7.00;;;6.90;37.90;;;;;;5113274;28;20406;-85
2022/02/11 16:07:56;;;;;;;7.60;7.00;;;6.80;37.90;;;;;;5112741;28;20418;-82
2022/02/11 16:10:24;;;;;;;6.97;6.57;;;6.80;39.10;;;;;;5095015;28;20206;-83
2022/02/11 16:12:50;;;;;;;7.77;7.07;;;6.80;38.90;;;;;;5094948;28;20213;-81
2022/02/11 16:15:16;;;;;;;6.80;6.30;;;6.80;40.00;;;;;;5094579;28;20845;-85
2022/02/11 16:20:42;;;;;;;7.57;7.07;;;6.70;38.00;;;;;;5113012;28;20488;-86
2022/02/11 16:23:12;;;;;;;7.50;6.40;;;6.70;39.90;;;;;;5094421;28;20472;-85
2022/02/11 16:25:38;;;;;;;7.13;6.47;;;6.70;39.90;;;;;;5094900;28;20423;-84
2022/02/11 16:28:09;;;;;;;7.57;6.83;;;6.70;39.90;;;;;;5094683;28;20961;-85
2022/02/11 16:30:36;;;;;;;6.73;6.13;;;6.70;41.50;;;;;;5094729;28;20182;-84
2022/02/11 16:33:02;;;;;;;11.70;6.03;;;6.70;38.90;;;;;;5094205;28;20815;-84
2022/02/11 16:35:28;;;;;;;7.78;6.97;;;6.70;39.90;;;;;;5093942;28;20423;-88
2022/02/11 16:37:54;;;;;;;7.43;6.93;;;6.70;39.90;;;;;;5112460;28;20218;-82
2022/02/11 16:40:19;;;;;;;7.40;6.80;;;6.70;40.40;;;;;;5094566;28;20166;-83
2022/02/11 16:42:46;;;;;;;6.50;6.20;;;6.80;40.80;;;;;;5094240;28;20243;-83
2022/02/11 16:45:11;;;;;;;8.23;7.30;;;6.70;43.50;;;;;;5094445;28;20257;-84
2022/02/11 16:47:38;;;;;;;7.87;7.37;;;6.30;47.40;;;;;;5094279;28;20514;-85
2022/02/11 16:50:06;;;;;;;8.20;7.50;;;5.80;51.60;;;;;;5093641;28;20173;-83
2022/02/11 16:52:33;;;;;;;7.77;7.33;;;5.60;53.70;;;;;;5093386;28;20420;-82
2022/02/11 16:55:00;;;;;;;8.57;7.90;;;5.60;54.10;;;;;;5093464;28;20416;-83
2022/02/11 16:57:25;;;;;;;9.13;8.53;;;5.50;55.70;;;;;;5093820;28;20550;-83